createdAt,value
2022-09-06T00:00:54.409Z,100672.34
2022-09-06T00:03:49.028Z,100672.66
2022-09-06T00:07:06.423Z,100667.13
2022-09-06T00:10:52.618Z,100661.28
2022-09-06T00:13:22.470Z,100677.41
2022-09-06T00:16:45.596Z,100663.13
2022-09-06T00:19:25.982Z,100664.78
2022-09-06T00:22:30.566Z,100667.31
2022-09-06T00:31:21.646Z,100666.09
2022-09-06T00:32:57.045Z,100663.69
2022-09-06T00:35:57.224Z,100669.25
2022-09-06T00:39:24.580Z,100674.66
2022-09-06T00:42:20.955Z,100666.88
2022-09-06T00:46:16.994Z,100669.38
2022-09-06T00:49:08.520Z,100673.50
2022-09-06T00:52:11.224Z,100673.88
2022-09-06T00:55:29.945Z,100673.16
2022-09-06T00:58:26.863Z,100674.06
2022-09-06T01:01:29.639Z,100677.66
2022-09-06T01:04:42.523Z,100683.69
2022-09-06T01:07:56.966Z,100678.53
2022-09-06T01:11:08.599Z,100676.84
2022-09-06T01:14:08.379Z,100667.22
2022-09-06T01:17:13.340Z,100667.28
2022-09-06T01:24:33.948Z,100674.19
2022-09-06T01:27:24.887Z,100671.59
2022-09-06T01:30:17.080Z,100666.56
2022-09-06T01:33:15.717Z,100669.03
2022-09-06T01:36:18.855Z,100656.28
2022-09-06T01:39:15.223Z,100659.31
2022-09-06T01:42:27.965Z,100656.75
2022-09-06T01:45:40.419Z,100655.06
2022-09-06T01:49:16.291Z,100663.75
2022-09-06T01:51:55.061Z,100654.37
2022-09-06T01:56:17.636Z,100661.94
2022-09-06T01:58:20.839Z,100664.03
2022-09-06T02:01:23.040Z,100661.25
2022-09-06T02:04:20.318Z,100655.97
2022-09-06T02:07:23.031Z,100653.84
2022-09-06T02:10:47.945Z,100662.25
2022-09-06T02:14:00.991Z,100655.00
2022-09-06T02:17:09.146Z,100652.81
2022-09-06T02:22:57.207Z,100648.72
2022-09-06T02:25:58.827Z,100645.59
2022-09-06T02:28:45.009Z,100648.84
2022-09-06T02:31:43.815Z,100653.56
2022-09-06T02:35:04.148Z,100649.66
2022-09-06T02:37:37.501Z,100647.97
2022-09-06T02:40:22.565Z,100648.06
2022-09-06T02:46:51.767Z,100649.84
2022-09-06T02:49:39.176Z,100651.53
2022-09-06T06:16:22.760Z,100651.56
2022-09-06T06:26:20.005Z,100639.88
2022-09-06T06:43:19.651Z,100639.03
2022-09-06T06:46:21.044Z,100640.66
2022-09-06T06:50:09.242Z,100636.75
2022-09-06T06:53:24.417Z,100652.94
2022-09-06T06:58:03.661Z,100650.59
2022-09-06T07:02:05.738Z,100653.91
2022-09-06T07:11:46.839Z,100658.56
2022-09-06T07:18:47.517Z,100662.22
2022-09-06T07:21:46.350Z,100665.31
2022-09-06T07:24:41.300Z,100670.34
2022-09-06T07:27:51.587Z,100665.03
2022-09-06T07:38:28.606Z,100666.75
2022-09-06T08:00:10.765Z,100665.50
2022-09-06T08:02:55.666Z,100668.25
2022-09-06T08:22:09.724Z,100666.78
2022-09-06T08:30:35.132Z,100651.16
2022-09-06T08:40:35.263Z,100642.59
2022-09-06T08:43:40.302Z,100640.69
2022-09-06T08:46:13.128Z,100642.50
2022-09-06T08:48:44.449Z,100643.56
2022-09-06T08:51:38.352Z,100641.53
2022-09-06T08:54:17.322Z,100641.25
2022-09-06T08:57:08.981Z,100641.69
2022-09-06T08:59:40.716Z,100634.38
2022-09-06T09:02:16.645Z,100639.31
2022-09-06T09:04:48.737Z,100635.12
2022-09-06T09:07:23.178Z,100628.97
2022-09-06T09:09:59.193Z,100629.50
2022-09-06T09:12:34.592Z,100633.34
2022-09-06T09:15:20.263Z,100626.16
2022-09-06T09:18:15.536Z,100616.53
2022-09-06T09:21:42.052Z,100623.63
2022-09-06T09:24:16.343Z,100614.56
2022-09-06T09:27:34.143Z,100602.72
2022-09-06T09:33:39.305Z,100603.84
2022-09-06T09:36:35.343Z,100600.09
2022-09-06T09:39:27.804Z,100590.03
2022-09-06T09:42:46.162Z,100589.69
2022-09-06T09:46:33.973Z,100586.56
2022-09-06T09:54:01.713Z,100573.19
2022-09-06T09:57:25.036Z,100573.75
2022-09-06T10:01:16.038Z,100572.44
2022-09-06T10:05:44.994Z,100559.34
2022-09-06T10:12:14.954Z,100550.59
2022-09-06T10:15:02.511Z,100551.41
2022-09-06T10:18:10.045Z,100545.00
2022-09-06T10:25:25.850Z,100535.03
2022-09-06T10:28:12.325Z,100531.38
2022-09-06T10:31:30.488Z,100527.00
2022-09-06T10:34:10.894Z,100533.44
2022-09-06T10:37:33.785Z,100524.06
2022-09-06T10:40:49.099Z,100515.28
2022-09-06T10:43:42.322Z,100517.69
2022-09-06T10:46:27.527Z,100500.03
2022-09-06T10:48:58.549Z,100505.28
2022-09-06T10:51:39.307Z,100505.09
2022-09-06T10:54:28.333Z,100510.66
2022-09-06T11:00:14.682Z,100509.47
2022-09-06T11:02:48.490Z,100509.88
2022-09-06T11:11:39.324Z,100518.00
2022-09-06T11:14:25.545Z,100516.91
2022-09-06T11:17:13.697Z,100512.13
2022-09-06T11:20:06.130Z,100510.56
2022-09-06T11:22:50.764Z,100506.91
2022-09-06T11:25:41.732Z,100495.69
2022-09-06T11:28:17.135Z,100498.19
2022-09-06T11:30:51.354Z,100502.06
2022-09-06T11:33:26.659Z,100492.53
2022-09-06T11:36:26.183Z,100492.75
2022-09-06T11:38:58.863Z,100483.06
2022-09-06T11:41:31.941Z,100481.00
2022-09-06T11:44:01.049Z,100478.47
2022-09-06T11:46:33.429Z,100475.47
2022-09-06T11:49:33.398Z,100477.44
2022-09-06T11:52:04.020Z,100471.56
2022-09-06T11:54:43.095Z,100469.09
2022-09-06T11:57:22.677Z,100470.06
2022-09-06T12:00:00.653Z,100467.34
2022-09-06T12:02:36.540Z,100457.28
2022-09-06T12:05:09.799Z,100453.59
2022-09-06T12:07:39.166Z,100446.63
2022-09-06T12:10:40.960Z,100444.13
2022-09-06T12:13:50.752Z,100448.03
2022-09-06T12:16:19.116Z,100439.75
2022-09-06T12:18:47.543Z,100436.69
2022-09-06T12:21:34.026Z,100434.88
2022-09-06T12:24:03.721Z,100436.06
2022-09-06T12:26:55.718Z,100428.00
2022-09-06T12:29:27.018Z,100422.06
2022-09-06T12:32:01.867Z,100412.06
2022-09-06T12:34:33.581Z,100415.50
2022-09-06T12:37:08.854Z,100404.84
2022-09-06T12:40:02.119Z,100396.63
2022-09-06T12:42:38.096Z,100401.09
2022-09-06T12:45:08.140Z,100404.53
2022-09-06T12:47:41.943Z,100392.69
2022-09-06T12:50:20.354Z,100386.88
2022-09-06T12:52:59.405Z,100391.31
2022-09-06T12:55:30.963Z,100392.16
2022-09-06T12:58:08.243Z,100386.88
2022-09-06T13:00:40.602Z,100373.56
2022-09-06T13:03:30.827Z,100368.22
2022-09-06T13:06:02.623Z,100363.75
2022-09-06T13:08:38.892Z,100371.44
2022-09-06T13:11:11.037Z,100373.25
2022-09-06T13:13:50.446Z,100365.19
2022-09-06T13:16:28.834Z,100357.34
2022-09-06T13:19:11.933Z,100352.16
2022-09-06T13:21:41.963Z,100352.47
2022-09-06T13:24:23.377Z,100347.25
2022-09-06T13:26:52.630Z,100352.06
2022-09-06T13:29:26.017Z,100356.47
2022-09-06T13:31:56.124Z,100358.16
2022-09-06T13:34:31.286Z,100340.97
2022-09-06T13:37:08.673Z,100346.00
2022-09-06T13:39:38.384Z,100329.34
2022-09-06T13:42:08.328Z,100322.59
2022-09-06T13:44:39.443Z,100319.03
2022-09-06T13:47:07.399Z,100309.53
2022-09-06T13:49:35.068Z,100318.16
2022-09-06T13:52:08.293Z,100314.72
2022-09-06T13:54:36.860Z,100316.72
2022-09-06T13:57:05.010Z,100313.72
2022-09-06T13:59:33.064Z,100308.31
2022-09-06T14:02:07.043Z,100321.13
2022-09-06T14:04:36.364Z,100317.25
2022-09-06T14:07:05.229Z,100309.84
2022-09-06T14:09:33.786Z,100309.84
2022-09-06T14:12:02.621Z,100303.31
2022-09-06T14:14:34.043Z,100300.53
2022-09-06T14:17:02.098Z,100297.75
2022-09-06T14:19:30.223Z,100300.75
2022-09-06T14:21:58.364Z,100300.06
2022-09-06T14:24:27.324Z,100291.37
2022-09-06T14:26:55.792Z,100296.31
2022-09-06T14:29:23.869Z,100290.88
2022-09-06T14:31:53.024Z,100300.28
2022-09-06T14:34:21.835Z,100295.22
2022-09-06T14:36:55.567Z,100292.53
2022-09-06T14:39:24.007Z,100289.00
2022-09-06T14:41:52.389Z,100291.50
2022-09-06T14:44:22.242Z,100284.44
2022-09-06T14:46:53.583Z,100279.78
2022-09-06T14:49:23.668Z,100286.38
2022-09-06T14:51:53.935Z,100289.38
2022-09-06T14:54:26.106Z,100284.69
2022-09-06T14:56:56.724Z,100287.25
2022-09-06T14:59:26.256Z,100280.53
2022-09-06T15:01:55.106Z,100296.03
2022-09-06T15:04:23.490Z,100298.88
2022-09-06T15:06:52.516Z,100309.47
2022-09-06T15:09:21.013Z,100307.41
2022-09-06T15:11:51.863Z,100312.03
2022-09-06T15:14:29.797Z,100334.88
2022-09-06T15:17:00.228Z,100346.06
2022-09-06T15:19:30.140Z,100358.94
2022-09-06T15:22:00.420Z,100366.81
2022-09-06T15:24:29.438Z,100385.69
2022-09-06T15:27:00.285Z,100406.94
2022-09-06T15:29:29.381Z,100403.56
2022-09-06T15:32:00.890Z,100384.09
2022-09-06T15:34:35.357Z,100360.91
2022-09-06T15:37:04.843Z,100333.06
2022-09-06T15:39:36.447Z,100320.56
2022-09-06T15:42:05.391Z,100313.84
2022-09-06T15:44:34.414Z,100324.41
2022-09-06T15:47:05.129Z,100318.94
2022-09-06T15:49:32.994Z,100319.50
2022-09-06T15:52:03.841Z,100321.69
2022-09-06T15:54:50.653Z,100316.94
2022-09-06T15:57:19.198Z,100309.25
2022-09-06T15:59:47.856Z,100307.41
2022-09-06T16:02:16.260Z,100312.88
2022-09-06T16:04:45.997Z,100329.78
2022-09-06T16:07:14.428Z,100318.22
2022-09-06T16:09:42.666Z,100322.41
2022-09-06T16:12:12.188Z,100324.22
2022-09-06T16:14:41.147Z,100325.53
2022-09-06T16:17:10.151Z,100327.09
2022-09-06T16:19:40.184Z,100333.91
2022-09-06T16:22:07.878Z,100330.78
2022-09-06T16:24:35.988Z,100336.00
2022-09-06T16:27:07.382Z,100342.09
2022-09-06T16:29:38.473Z,100352.31
2022-09-06T16:32:07.912Z,100353.72
2022-09-06T16:34:40.679Z,100358.38
2022-09-06T16:37:09.709Z,100352.81
2022-09-06T16:39:38.791Z,100343.41
2022-09-06T16:42:07.874Z,100330.31
2022-09-06T16:44:38.341Z,100329.22
2022-09-06T16:47:06.365Z,100326.62
2022-09-06T16:49:37.542Z,100325.31
2022-09-06T16:52:06.454Z,100326.62
2022-09-06T16:54:34.853Z,100331.66
2022-09-06T16:57:03.174Z,100333.94
2022-09-06T16:59:31.273Z,100324.44
2022-09-06T17:01:59.596Z,100326.34
2022-09-06T17:04:28.945Z,100330.91
2022-09-06T17:06:57.211Z,100334.34
2022-09-06T17:09:25.383Z,100341.09
2022-09-06T17:11:55.433Z,100351.00
2022-09-06T17:14:24.101Z,100358.84
2022-09-06T17:17:07.621Z,100367.53
2022-09-06T17:19:38.079Z,100369.47
2022-09-06T17:22:06.545Z,100372.47
2022-09-06T17:24:35.145Z,100376.37
2022-09-06T17:27:05.183Z,100377.81
2022-09-06T17:29:33.522Z,100387.47
2022-09-06T17:32:05.468Z,100373.84
2022-09-06T17:34:38.167Z,100372.91
2022-09-06T17:37:08.533Z,100371.53
2022-09-06T17:39:43.213Z,100380.31
2022-09-06T17:42:11.984Z,100378.03
2022-09-06T17:44:41.337Z,100373.53
2022-09-06T17:47:13.387Z,100385.91
2022-09-06T17:49:43.015Z,100378.69
2022-09-06T17:52:11.952Z,100375.03
2022-09-06T17:54:40.516Z,100368.91
2022-09-06T17:57:08.920Z,100370.38
2022-09-06T17:59:38.694Z,100372.75
2022-09-06T18:02:07.987Z,100364.41
2022-09-06T18:04:39.155Z,100370.28
2022-09-06T18:07:07.346Z,100375.75
2022-09-06T18:09:40.975Z,100374.25
2022-09-06T18:12:09.767Z,100372.78
2022-09-06T18:14:39.840Z,100365.84
2022-09-06T18:17:10.215Z,100365.97
2022-09-06T18:19:39.805Z,100366.53
2022-09-06T18:22:12.014Z,100372.34
2022-09-06T18:24:42.580Z,100371.28
2022-09-06T18:27:10.665Z,100376.03
2022-09-06T18:29:39.727Z,100377.59
2022-09-06T18:32:10.097Z,100390.44
2022-09-06T18:34:39.686Z,100389.22
2022-09-06T18:37:09.714Z,100395.38
2022-09-06T18:39:38.034Z,100399.37
2022-09-06T18:42:11.595Z,100396.91
2022-09-06T18:44:44.159Z,100398.47
2022-09-06T18:47:13.538Z,100388.75
2022-09-06T18:49:44.316Z,100387.22
2022-09-06T18:52:13.492Z,100387.47
2022-09-06T18:54:44.319Z,100381.44
2022-09-06T18:57:15.959Z,100379.94
2022-09-06T18:59:44.886Z,100381.16
2022-09-06T19:02:13.474Z,100370.50
2022-09-06T19:04:42.153Z,100371.41
2022-09-06T19:07:12.645Z,100375.00
2022-09-06T19:09:43.311Z,100383.69
2022-09-06T19:12:12.744Z,100383.81
2022-09-06T19:14:42.030Z,100377.28
2022-09-06T19:17:13.860Z,100387.75
2022-09-06T19:19:44.147Z,100396.28
2022-09-06T19:22:12.226Z,100390.13
2022-09-06T19:24:40.725Z,100386.31
2022-09-06T19:27:09.581Z,100392.53
2022-09-06T19:29:39.349Z,100392.81
2022-09-06T19:32:10.417Z,100381.44
2022-09-06T19:34:39.832Z,100381.25
2022-09-06T19:37:08.099Z,100379.78
2022-09-06T19:39:39.140Z,100381.25
2022-09-06T19:42:09.640Z,100376.37
2022-09-06T19:44:39.278Z,100374.03
2022-09-06T19:47:09.320Z,100375.66
2022-09-06T19:49:38.156Z,100369.72
2022-09-06T19:54:41.316Z,100363.31
2022-09-06T19:57:10.022Z,100357.41
2022-09-06T19:59:39.562Z,100359.91
2022-09-06T20:02:09.890Z,100361.63
2022-09-06T20:04:41.938Z,100361.31
2022-09-06T20:07:10.688Z,100348.78
2022-09-06T20:09:43.254Z,100359.84
2022-09-06T20:12:12.552Z,100352.00
2022-09-06T20:14:42.783Z,100354.81
2022-09-06T20:17:32.772Z,100352.31
2022-09-06T20:20:04.764Z,100353.25
2022-09-06T20:22:34.579Z,100354.41
2022-09-06T20:25:06.661Z,100348.87
2022-09-06T20:27:39.300Z,100351.97
2022-09-06T20:30:13.748Z,100351.53
2022-09-06T20:32:46.951Z,100352.28
2022-09-06T20:35:18.751Z,100358.38
2022-09-06T20:37:48.922Z,100358.75
2022-09-06T20:40:18.900Z,100362.25
2022-09-06T20:42:47.937Z,100359.47
2022-09-06T20:45:25.658Z,100354.63
2022-09-06T20:47:58.142Z,100350.38
2022-09-06T20:50:28.240Z,100353.97
2022-09-06T20:52:56.710Z,100356.28
2022-09-06T20:55:26.463Z,100362.78
2022-09-06T20:57:57.747Z,100363.56
2022-09-06T21:00:27.035Z,100356.53
2022-09-06T21:02:57.971Z,100369.00
2022-09-06T21:05:26.490Z,100348.47
2022-09-06T21:07:54.712Z,100357.44
2022-09-06T21:10:23.334Z,100353.03
2022-09-06T21:12:52.601Z,100352.31
2022-09-06T21:15:21.498Z,100355.72
2022-09-06T21:17:50.397Z,100355.56
2022-09-06T21:20:18.795Z,100348.38
2022-09-06T21:22:47.371Z,100348.75
2022-09-06T21:25:16.319Z,100353.00
2022-09-06T21:27:47.057Z,100347.91
2022-09-06T21:30:14.972Z,100337.72
2022-09-06T21:32:43.471Z,100344.19
2022-09-06T21:35:14.035Z,100341.66
2022-09-06T21:37:43.951Z,100343.09
2022-09-06T21:40:12.436Z,100346.34
2022-09-06T21:42:42.736Z,100340.66
2022-09-06T21:45:11.337Z,100343.47
2022-09-06T21:47:42.808Z,100338.41
2022-09-06T21:52:41.793Z,100335.03
2022-09-06T21:55:14.932Z,100339.53
2022-09-06T21:57:46.569Z,100331.34
2022-09-06T22:00:15.565Z,100336.38
2022-09-06T22:02:48.471Z,100328.09
2022-09-06T22:05:21.436Z,100324.69
2022-09-06T22:07:50.145Z,100330.78
2022-09-06T22:10:20.684Z,100332.37
2022-09-06T22:12:56.746Z,100336.28
2022-09-06T22:15:31.715Z,100337.66
2022-09-06T22:18:04.703Z,100329.44
2022-09-06T22:20:39.651Z,100334.91
2022-09-06T22:23:10.741Z,100338.72
2022-09-06T22:25:44.817Z,100340.41
2022-09-06T22:28:15.647Z,100335.72
2022-09-06T22:30:47.366Z,100328.50
2022-09-06T22:33:20.078Z,100334.38
2022-09-06T22:35:49.460Z,100330.84
2022-09-06T22:38:21.556Z,100336.38
2022-09-06T22:40:55.813Z,100336.81
2022-09-06T22:43:29.792Z,100330.62
2022-09-06T22:46:06.470Z,100333.47
2022-09-06T22:48:38.531Z,100329.28
2022-09-06T22:51:10.910Z,100328.94
2022-09-06T22:53:47.391Z,100327.34
2022-09-06T22:56:16.824Z,100325.78
2022-09-06T22:58:48.857Z,100323.19
2022-09-06T23:01:20.146Z,100320.66
2022-09-06T23:03:53.556Z,100315.72
2022-09-06T23:06:23.495Z,100317.16
2022-09-06T23:08:55.639Z,100322.59
2022-09-06T23:11:28.538Z,100320.59
2022-09-06T23:14:01.401Z,100318.44
2022-09-06T23:16:31.256Z,100324.03
2022-09-06T23:19:05.157Z,100314.69
2022-09-06T23:21:34.785Z,100312.00
2022-09-06T23:24:08.989Z,100306.03
2022-09-06T23:26:40.971Z,100307.72
2022-09-06T23:29:15.048Z,100314.94
2022-09-06T23:31:47.693Z,100319.53
2022-09-06T23:34:25.048Z,100312.50
2022-09-06T23:37:00.570Z,100316.19
2022-09-06T23:39:32.737Z,100316.03
2022-09-06T23:42:05.057Z,100309.50
2022-09-06T23:44:37.979Z,100302.16
2022-09-06T23:47:10.702Z,100303.66
2022-09-06T23:49:46.850Z,100307.84
2022-09-06T23:52:17.365Z,100306.94
2022-09-06T23:54:49.813Z,100299.41
2022-09-06T23:57:20.458Z,100297.72
2022-09-06T23:59:50.845Z,100301.37
